createdAt,value
2023-05-11T00:00:38.937Z,101483.69
2023-05-11T00:03:06.228Z,101477.78
2023-05-11T00:05:32.788Z,101476.63
2023-05-11T00:07:59.155Z,101477.31
2023-05-11T00:10:25.532Z,101476.31
2023-05-11T00:12:51.890Z,101473.66
2023-05-11T00:15:18.368Z,101479.63
2023-05-11T00:17:45.381Z,101483.09
2023-05-11T00:20:11.924Z,101471.63
2023-05-11T00:22:39.132Z,101470.72
2023-05-11T00:25:06.480Z,101462.91
2023-05-11T00:27:32.897Z,101460.28
2023-05-11T00:29:59.258Z,101449.97
2023-05-11T00:32:25.833Z,101457.03
2023-05-11T00:34:52.232Z,101463.25
2023-05-11T00:37:18.615Z,101468.50
2023-05-11T00:39:44.987Z,101473.81
2023-05-11T00:42:11.675Z,101473.81
2023-05-11T00:44:38.043Z,101468.66
2023-05-11T00:47:04.708Z,101463.44
2023-05-11T00:49:31.304Z,101471.50
2023-05-11T00:51:57.879Z,101470.00
2023-05-11T00:54:24.741Z,101474.34
2023-05-11T00:56:51.736Z,101475.94
2023-05-11T00:59:18.854Z,101467.81
2023-05-11T01:01:45.529Z,101469.50
2023-05-11T01:04:12.320Z,101466.88
2023-05-11T01:06:47.830Z,101467.03
2023-05-11T01:09:31.332Z,101472.09
2023-05-11T01:12:04.307Z,101469.41
2023-05-11T01:14:39.281Z,101477.19
2023-05-11T01:17:23.846Z,101471.09
2023-05-11T01:19:58.979Z,101478.94
2023-05-11T01:22:38.799Z,101480.53
2023-05-11T01:25:29.550Z,101478.88
2023-05-11T01:28:37.426Z,101481.41
2023-05-11T01:31:10.786Z,101481.78
2023-05-11T01:33:40.842Z,101476.84
2023-05-11T01:36:11.015Z,101479.56
2023-05-11T01:38:44.285Z,101476.16
2023-05-11T01:41:16.303Z,101474.69
2023-05-11T01:43:45.789Z,101473.09
2023-05-11T01:46:16.843Z,101472.97
2023-05-11T01:48:49.127Z,101470.31
2023-05-11T01:51:17.909Z,101476.47
2023-05-11T01:53:46.258Z,101484.44
2023-05-11T01:56:14.249Z,101483.94
2023-05-11T01:58:42.645Z,101482.25
2023-05-11T02:01:10.671Z,101484.03
2023-05-11T02:03:39.636Z,101489.25
2023-05-11T02:06:07.903Z,101485.16
2023-05-11T02:08:35.422Z,101488.66
2023-05-11T02:11:03.315Z,101483.53
2023-05-11T02:13:30.483Z,101487.16
2023-05-11T02:15:58.559Z,101481.94
2023-05-11T02:18:25.219Z,101490.72
2023-05-11T02:20:52.153Z,101490.03
2023-05-11T02:23:20.564Z,101490.81
2023-05-11T02:25:47.605Z,101488.00
2023-05-11T02:28:14.032Z,101489.66
2023-05-11T02:30:46.893Z,101490.38
2023-05-11T02:33:21.289Z,101496.31
2023-05-11T02:35:50.334Z,101485.78
2023-05-11T02:38:18.711Z,101487.59
2023-05-11T02:40:51.374Z,101488.31
2023-05-11T02:43:25.207Z,101488.38
2023-05-11T02:45:58.515Z,101479.16
2023-05-11T02:48:38.453Z,101488.88
2023-05-11T02:51:07.477Z,101493.50
2023-05-11T02:53:36.272Z,101487.28
2023-05-11T02:56:03.293Z,101487.22
2023-05-11T02:58:30.257Z,101487.22
2023-05-11T03:00:57.535Z,101491.59
2023-05-11T03:03:24.765Z,101495.09
2023-05-11T03:05:51.219Z,101497.78
2023-05-11T03:08:17.663Z,101502.16
2023-05-11T03:10:44.560Z,101499.56
2023-05-11T03:13:11.082Z,101493.63
2023-05-11T03:15:38.319Z,101491.09
2023-05-11T03:18:08.308Z,101495.31
2023-05-11T03:20:40.603Z,101496.94
2023-05-11T03:23:08.441Z,101493.22
2023-05-11T03:25:35.475Z,101486.16
2023-05-11T03:28:04.154Z,101486.00
2023-05-11T03:30:31.492Z,101480.84
2023-05-11T03:32:58.067Z,101480.09
2023-05-11T03:35:27.195Z,101468.72
2023-05-11T03:37:56.426Z,101472.94
2023-05-11T03:40:24.300Z,101479.16
2023-05-11T03:42:54.371Z,101478.41
2023-05-11T03:45:21.874Z,101466.34
2023-05-11T03:47:50.243Z,101470.78
2023-05-11T03:50:17.626Z,101462.19
2023-05-11T03:52:44.507Z,101474.44
2023-05-11T03:55:11.464Z,101475.22
2023-05-11T03:57:38.705Z,101469.94
2023-05-11T04:00:05.991Z,101472.47
2023-05-11T04:02:34.605Z,101469.72
2023-05-11T04:05:01.149Z,101475.78
2023-05-11T04:07:27.614Z,101478.56
2023-05-11T04:09:54.062Z,101476.00
2023-05-11T04:12:21.326Z,101476.84
2023-05-11T04:14:47.727Z,101478.69
2023-05-11T04:17:14.067Z,101484.72
2023-05-11T04:19:40.586Z,101483.06
2023-05-11T04:22:07.071Z,101489.13
2023-05-11T04:24:33.507Z,101493.44
2023-05-11T04:26:59.990Z,101488.13
2023-05-11T04:29:26.340Z,101494.03
2023-05-11T04:31:52.768Z,101504.25
2023-05-11T04:34:19.181Z,101505.03
2023-05-11T04:36:50.423Z,101502.22
2023-05-11T04:39:17.358Z,101495.31
2023-05-11T04:41:43.909Z,101502.97
2023-05-11T04:44:10.467Z,101500.38
2023-05-11T04:46:38.521Z,101502.84
2023-05-11T04:49:05.724Z,101502.75
2023-05-11T04:51:32.355Z,101506.31
2023-05-11T04:53:59.097Z,101504.47
2023-05-11T04:56:26.338Z,101508.84
2023-05-11T04:58:52.756Z,101499.53
2023-05-11T05:01:19.207Z,101507.03
2023-05-11T05:03:48.554Z,101505.41
2023-05-11T05:06:15.019Z,101513.44
2023-05-11T05:08:41.513Z,101506.19
2023-05-11T05:11:07.956Z,101511.09
2023-05-11T05:13:34.352Z,101506.59
2023-05-11T05:16:00.760Z,101515.25
2023-05-11T05:18:27.187Z,101510.81
2023-05-11T05:20:53.679Z,101516.19
2023-05-11T05:23:20.096Z,101520.69
2023-05-11T05:25:46.532Z,101514.47
2023-05-11T05:28:13.078Z,101520.69
2023-05-11T05:30:39.627Z,101518.88
2023-05-11T05:33:06.161Z,101524.16
2023-05-11T05:35:32.655Z,101524.31
2023-05-11T05:37:59.052Z,101528.59
2023-05-11T05:40:25.523Z,101533.47
2023-05-11T05:42:52.029Z,101536.00
2023-05-11T05:45:18.552Z,101537.63
2023-05-11T05:47:45.008Z,101537.56
2023-05-11T05:50:11.742Z,101540.84
2023-05-11T05:52:38.203Z,101542.63
2023-05-11T05:55:04.916Z,101548.78
2023-05-11T05:57:31.365Z,101549.47
2023-05-11T05:59:57.867Z,101553.00
2023-05-11T06:02:24.346Z,101549.63
2023-05-11T06:04:50.969Z,101556.38
2023-05-11T06:07:17.395Z,101557.88
2023-05-11T06:09:43.842Z,101560.38
2023-05-11T06:12:10.315Z,101562.00
2023-05-11T06:14:36.688Z,101561.94
2023-05-11T06:17:03.088Z,101559.19
2023-05-11T06:19:29.483Z,101563.50
2023-05-11T06:21:55.835Z,101560.09
2023-05-11T06:24:22.465Z,101565.97
2023-05-11T06:26:48.888Z,101562.13
2023-05-11T06:29:15.356Z,101566.22
2023-05-11T06:31:41.853Z,101564.06
2023-05-11T06:34:09.522Z,101571.78
2023-05-11T06:36:36.302Z,101568.03
2023-05-11T06:39:02.683Z,101568.09
2023-05-11T06:41:29.093Z,101572.31
2023-05-11T06:43:55.500Z,101575.63
2023-05-11T06:46:22.259Z,101579.03
2023-05-11T06:48:48.824Z,101578.78
2023-05-11T06:51:15.217Z,101573.50
2023-05-11T06:53:41.625Z,101571.50
2023-05-11T06:56:08.320Z,101583.31
2023-05-11T06:58:34.780Z,101580.72
2023-05-11T07:01:02.350Z,101579.03
2023-05-11T07:03:28.857Z,101574.41
2023-05-11T07:05:55.288Z,101586.56
2023-05-11T07:08:21.738Z,101577.69
2023-05-11T07:10:48.296Z,101579.22
2023-05-11T07:13:14.722Z,101573.69
2023-05-11T07:15:41.542Z,101574.66
2023-05-11T07:18:08.062Z,101575.53
2023-05-11T07:20:36.645Z,101577.91
2023-05-11T07:23:03.515Z,101579.47
2023-05-11T07:25:30.256Z,101578.97
2023-05-11T07:27:56.683Z,101576.97
2023-05-11T07:30:24.306Z,101578.97
2023-05-11T07:32:51.278Z,101587.03
2023-05-11T07:35:17.866Z,101584.19
2023-05-11T07:37:44.261Z,101587.84
2023-05-11T07:40:11.159Z,101577.88
2023-05-11T07:42:37.618Z,101576.19
2023-05-11T07:45:04.219Z,101573.78
2023-05-11T07:47:30.650Z,101579.88
2023-05-11T07:49:57.393Z,101575.69
2023-05-11T07:52:23.785Z,101581.88
2023-05-11T07:54:50.161Z,101579.47
2023-05-11T07:57:16.558Z,101588.09
2023-05-11T07:59:42.935Z,101584.63
2023-05-11T08:02:11.461Z,101591.97
2023-05-11T08:04:39.290Z,101592.56
2023-05-11T08:07:05.756Z,101586.09
2023-05-11T08:09:32.329Z,101586.78
2023-05-11T08:12:01.527Z,101593.88
2023-05-11T08:14:28.169Z,101590.88
2023-05-11T08:16:54.690Z,101591.22
2023-05-11T08:19:21.260Z,101589.41
2023-05-11T08:21:47.706Z,101596.25
2023-05-11T08:24:14.112Z,101591.50
2023-05-11T08:26:40.512Z,101596.41
2023-05-11T08:29:07.564Z,101587.44
2023-05-11T08:31:33.964Z,101585.94
2023-05-11T08:34:00.649Z,101589.81
2023-05-11T08:36:27.170Z,101590.38
2023-05-11T08:38:57.028Z,101592.84
2023-05-11T08:41:25.550Z,101582.00
2023-05-11T08:43:53.081Z,101582.00
2023-05-11T08:46:23.531Z,101574.63
2023-05-11T08:48:50.597Z,101592.69
2023-05-11T08:51:17.108Z,101586.44
2023-05-11T08:53:43.571Z,101589.72
2023-05-11T08:56:11.766Z,101581.66
2023-05-11T08:58:39.670Z,101593.59
2023-05-11T09:01:07.166Z,101588.91
2023-05-11T09:03:36.962Z,101586.19
2023-05-11T09:06:07.174Z,101591.09
2023-05-11T09:08:37.916Z,101581.50
2023-05-11T09:11:05.427Z,101583.56
2023-05-11T09:13:32.005Z,101581.03
2023-05-11T09:15:58.989Z,101581.63
2023-05-11T09:18:26.861Z,101582.44
2023-05-11T09:20:53.537Z,101577.28
2023-05-11T09:23:26.556Z,101584.03
2023-05-11T09:25:53.369Z,101578.34
2023-05-11T09:28:25.870Z,101580.66
2023-05-11T09:30:53.632Z,101582.44
2023-05-11T09:33:24.758Z,101578.81
2023-05-11T09:35:51.736Z,101580.25
2023-05-11T09:46:21.371Z,101581.72
2023-05-11T09:48:59.902Z,101579.78
2023-05-11T09:51:31.899Z,101576.28
2023-05-11T09:53:59.481Z,101586.06
2023-05-11T09:56:49.122Z,101583.34
2023-05-11T09:59:17.057Z,101580.78
2023-05-11T10:01:43.896Z,101585.19
2023-05-11T10:04:22.348Z,101581.56
2023-05-11T10:06:55.565Z,101574.34
2023-05-11T10:09:27.188Z,101580.34
2023-05-11T10:11:55.313Z,101585.59
2023-05-11T10:14:22.650Z,101578.13
2023-05-11T10:16:49.875Z,101578.22
2023-05-11T10:19:17.206Z,101581.72
2023-05-11T10:21:44.138Z,101582.84
2023-05-11T10:27:22.896Z,101582.25
2023-05-11T10:29:50.453Z,101585.53
2023-05-11T10:32:18.975Z,101589.47
2023-05-11T10:34:46.971Z,101599.28
2023-05-11T10:37:16.241Z,101598.03
2023-05-11T10:39:46.161Z,101597.00
2023-05-11T10:42:29.115Z,101596.41
2023-05-11T10:45:14.223Z,101598.91
2023-05-11T10:48:26.423Z,101598.84
2023-05-11T10:51:38.547Z,101606.50
2023-05-11T10:54:33.390Z,101616.84
2023-05-11T10:57:12.256Z,101621.94
2023-05-11T11:00:09.581Z,101626.16
2023-05-11T11:02:37.254Z,101631.25
2023-05-11T11:05:05.891Z,101631.69
2023-05-11T11:07:32.480Z,101629.56
2023-05-11T11:10:07.060Z,101626.19
2023-05-11T11:12:36.823Z,101620.97
2023-05-11T11:15:07.333Z,101618.97
2023-05-11T11:17:35.528Z,101628.88
2023-05-11T11:20:04.780Z,101618.00
2023-05-11T11:22:34.463Z,101615.59
2023-05-11T11:25:11.526Z,101614.00
2023-05-11T11:27:41.194Z,101615.59
2023-05-11T11:30:25.399Z,101605.91
2023-05-11T11:33:15.169Z,101613.50
2023-05-11T11:35:42.102Z,101600.84
2023-05-11T11:38:11.238Z,101602.63
2023-05-11T11:40:49.615Z,101606.84
2023-05-11T11:43:19.084Z,101596.19
2023-05-11T11:45:51.658Z,101602.97
2023-05-11T11:48:23.504Z,101617.00
2023-05-11T11:51:02.387Z,101611.75
2023-05-11T11:53:38.239Z,101613.34
2023-05-11T12:03:05.961Z,101625.75
2023-05-11T12:05:35.932Z,101623.91
2023-05-11T12:08:07.350Z,101627.22
2023-05-11T12:10:33.795Z,101633.47
2023-05-11T12:13:00.929Z,101626.28
2023-05-11T12:15:29.753Z,101633.81
2023-05-11T12:17:56.996Z,101630.28
2023-05-11T12:20:24.241Z,101620.72
2023-05-11T12:22:50.930Z,101613.78
2023-05-11T12:25:18.785Z,101613.63
2023-05-11T12:28:00.371Z,101607.22
2023-05-11T12:30:30.482Z,101604.50
2023-05-11T12:32:59.281Z,101604.59
2023-05-11T12:35:31.375Z,101612.97
2023-05-11T12:38:01.053Z,101609.19
2023-05-11T12:40:27.911Z,101608.44
2023-05-11T12:42:56.384Z,101604.78
2023-05-11T12:45:24.630Z,101614.31
2023-05-11T12:47:53.363Z,101611.47
2023-05-11T12:50:20.889Z,101610.44
2023-05-11T12:52:48.911Z,101622.47
2023-05-11T12:55:26.268Z,101611.78
2023-05-11T12:57:54.613Z,101613.50
2023-05-11T13:00:22.003Z,101613.31
2023-05-11T13:02:50.332Z,101614.25
2023-05-11T13:05:19.315Z,101608.91
2023-05-11T13:07:46.608Z,101605.19
2023-05-11T13:10:14.007Z,101618.03
2023-05-11T13:12:54.198Z,101612.78
2023-05-11T13:15:22.755Z,101611.72
2023-05-11T13:17:57.178Z,101604.19
2023-05-11T13:20:27.226Z,101617.56
2023-05-11T13:23:07.467Z,101616.28
2023-05-11T13:25:55.384Z,101614.59
2023-05-11T13:28:24.303Z,101610.59
2023-05-11T13:30:51.978Z,101611.97
2023-05-11T13:33:19.107Z,101611.06
2023-05-11T13:35:45.767Z,101613.66
2023-05-11T13:38:13.101Z,101611.13
2023-05-11T13:40:39.519Z,101609.91
2023-05-11T13:43:06.518Z,101606.38
2023-05-11T13:45:33.056Z,101606.19
2023-05-11T13:47:59.497Z,101609.56
2023-05-11T13:50:26.636Z,101603.19
2023-05-11T13:52:53.764Z,101604.09
2023-05-11T13:55:21.035Z,101605.13
2023-05-11T13:57:47.832Z,101600.72
2023-05-11T14:00:15.136Z,101604.94
2023-05-11T14:02:41.777Z,101598.88
2023-05-11T14:05:08.956Z,101598.72
2023-05-11T14:07:46.224Z,101597.19
2023-05-11T14:10:15.379Z,101594.31
2023-05-11T14:12:41.872Z,101590.66
2023-05-11T14:15:08.899Z,101598.53
2023-05-11T14:17:35.477Z,101593.91
2023-05-11T14:20:02.391Z,101590.00
2023-05-11T14:22:29.197Z,101584.69
2023-05-11T14:24:56.109Z,101588.13
2023-05-11T14:27:23.429Z,101593.28
2023-05-11T14:29:52.206Z,101585.25
2023-05-11T14:32:19.446Z,101589.31
2023-05-11T14:34:46.230Z,101589.03
2023-05-11T14:37:13.191Z,101586.34
2023-05-11T14:39:41.027Z,101592.69
2023-05-11T14:42:07.832Z,101585.66
2023-05-11T14:44:34.213Z,101592.22
2023-05-11T14:47:00.738Z,101593.66
2023-05-11T14:49:27.484Z,101586.97
2023-05-11T14:51:53.870Z,101592.50
2023-05-11T14:54:20.231Z,101594.50
2023-05-11T14:56:51.304Z,101588.91
2023-05-11T14:59:17.786Z,101590.59
2023-05-11T15:01:44.253Z,101595.38
2023-05-11T15:04:10.725Z,101592.31
2023-05-11T15:06:37.269Z,101588.66
2023-05-11T15:09:04.175Z,101591.88
2023-05-11T15:11:30.671Z,101589.47
2023-05-11T15:13:57.193Z,101593.13
2023-05-11T15:16:23.633Z,101598.09
2023-05-11T15:18:50.169Z,101602.88
2023-05-11T15:21:16.711Z,101598.88
2023-05-11T15:23:43.130Z,101598.88
2023-05-11T15:26:10.207Z,101596.16
2023-05-11T15:28:36.773Z,101597.63
2023-05-11T15:31:03.355Z,101588.34
2023-05-11T15:33:30.144Z,101602.50
2023-05-11T15:35:56.521Z,101602.13
2023-05-11T15:38:22.889Z,101604.19
2023-05-11T15:40:49.293Z,101606.38
2023-05-11T15:43:15.804Z,101616.47
2023-05-11T15:45:42.349Z,101610.56
2023-05-11T15:48:08.777Z,101624.59
2023-05-11T15:50:36.487Z,101620.75
2023-05-11T15:53:02.926Z,101620.97
2023-05-11T15:55:29.318Z,101619.38
2023-05-11T15:57:55.745Z,101623.66
2023-05-11T16:00:22.120Z,101623.31
2023-05-11T16:02:49.262Z,101620.69
2023-05-11T16:05:15.950Z,101608.88
2023-05-11T16:07:42.375Z,101613.44
2023-05-11T16:10:09.236Z,101616.81
2023-05-11T16:12:35.655Z,101614.00
2023-05-11T16:15:02.072Z,101607.91
2023-05-11T16:17:28.550Z,101600.88
2023-05-11T16:19:54.983Z,101600.72
2023-05-11T16:22:22.375Z,101605.97
2023-05-11T16:24:48.730Z,101603.13
2023-05-11T16:27:15.393Z,101595.19
2023-05-11T16:29:41.788Z,101596.78
2023-05-11T16:32:08.192Z,101595.25
2023-05-11T16:34:35.146Z,101599.00
2023-05-11T16:39:28.135Z,101592.88
2023-05-11T16:41:54.590Z,101597.19
2023-05-11T16:44:21.090Z,101601.69
2023-05-11T16:46:47.904Z,101607.03
2023-05-11T16:49:14.405Z,101603.38
2023-05-11T16:51:40.769Z,101605.16
2023-05-11T16:54:07.461Z,101604.41
2023-05-11T16:56:33.933Z,101602.41
2023-05-11T16:59:00.360Z,101611.13
2023-05-11T17:01:26.853Z,101603.44
2023-05-11T17:03:53.439Z,101609.59
2023-05-11T17:06:22.655Z,101612.22
2023-05-11T17:08:49.223Z,101620.22
2023-05-11T17:11:15.771Z,101618.63
2023-05-11T17:13:42.209Z,101617.34
2023-05-11T17:16:08.606Z,101621.22
2023-05-11T17:18:35.166Z,101624.13
2023-05-11T17:21:01.716Z,101626.25
2023-05-11T17:23:28.542Z,101634.59
2023-05-11T17:25:55.028Z,101639.28
2023-05-11T17:28:22.112Z,101635.97
2023-05-11T17:30:53.164Z,101635.47
2023-05-11T17:33:19.859Z,101640.31
2023-05-11T17:35:46.503Z,101639.66
2023-05-11T17:38:12.917Z,101632.72
2023-05-11T17:40:39.332Z,101640.75
2023-05-11T17:43:05.765Z,101635.59
2023-05-11T17:45:32.288Z,101635.66
2023-05-11T17:47:58.884Z,101640.22
2023-05-11T17:50:25.329Z,101641.97
2023-05-11T17:52:51.720Z,101646.22
2023-05-11T17:55:19.033Z,101642.84
2023-05-11T17:57:45.698Z,101643.84
2023-05-11T18:00:12.633Z,101644.78
2023-05-11T18:02:39.216Z,101641.31
2023-05-11T18:05:06.906Z,101645.53
2023-05-11T18:07:33.371Z,101642.75
2023-05-11T18:09:59.992Z,101645.97
2023-05-11T18:12:26.934Z,101639.72
2023-05-11T18:14:53.481Z,101647.41
2023-05-11T18:17:19.848Z,101640.41
2023-05-11T18:19:46.265Z,101652.66
2023-05-11T18:22:12.702Z,101645.66
2023-05-11T18:24:39.363Z,101647.41
2023-05-11T18:27:05.891Z,101650.03
2023-05-11T18:29:32.366Z,101645.81
2023-05-11T18:31:58.977Z,101646.75
2023-05-11T18:34:25.472Z,101649.38
2023-05-11T18:36:51.893Z,101645.81
2023-05-11T18:39:19.253Z,101654.69
2023-05-11T18:41:45.883Z,101651.97
2023-05-11T18:44:13.977Z,101658.06
2023-05-11T18:46:41.043Z,101657.13
2023-05-11T18:49:07.487Z,101662.28
2023-05-11T18:51:33.933Z,101663.38
2023-05-11T18:54:00.336Z,101663.63
2023-05-11T18:56:26.741Z,101672.41
2023-05-11T18:58:53.346Z,101670.88
2023-05-11T19:01:19.917Z,101678.22
2023-05-11T19:03:47.102Z,101669.59
2023-05-11T19:06:13.650Z,101674.22
2023-05-11T19:08:40.343Z,101679.53
2023-05-11T19:11:07.914Z,101681.47
2023-05-11T19:13:34.928Z,101683.31
2023-05-11T19:16:03.598Z,101684.34
2023-05-11T19:18:30.854Z,101683.63
2023-05-11T19:20:57.335Z,101686.19
2023-05-11T19:23:23.757Z,101690.66
2023-05-11T19:25:50.282Z,101696.09
2023-05-11T19:28:17.375Z,101696.28
2023-05-11T19:30:43.834Z,101695.44
2023-05-11T19:33:10.312Z,101698.13
2023-05-11T19:35:36.715Z,101697.94
2023-05-11T19:38:03.192Z,101705.91
2023-05-11T19:43:00.933Z,101712.03
2023-05-11T19:45:31.286Z,101709.53
2023-05-11T19:47:59.077Z,101713.28
2023-05-11T19:50:26.492Z,101721.97
2023-05-11T19:52:53.397Z,101722.03
2023-05-11T19:55:20.298Z,101720.38
2023-05-11T19:57:46.805Z,101721.28
2023-05-11T20:00:13.437Z,101724.00
2023-05-11T20:02:40.237Z,101734.53
2023-05-11T20:05:07.757Z,101728.44
2023-05-11T20:07:34.266Z,101731.06
2023-05-11T20:10:00.800Z,101731.19
2023-05-11T20:12:27.142Z,101740.91
2023-05-11T20:14:53.512Z,101739.16
2023-05-11T20:17:20.048Z,101737.38
2023-05-11T20:19:46.701Z,101754.13
2023-05-11T20:22:13.374Z,101746.53
2023-05-11T20:24:39.764Z,101745.75
2023-05-11T20:27:09.520Z,101751.22
2023-05-11T20:29:36.363Z,101743.44
2023-05-11T20:32:03.189Z,101749.03
2023-05-11T20:34:29.797Z,101750.31
2023-05-11T20:36:56.286Z,101747.00
2023-05-11T20:39:23.144Z,101744.59
2023-05-11T20:41:52.094Z,101746.66
2023-05-11T20:44:18.745Z,101745.09
2023-05-11T20:46:47.272Z,101738.03
2023-05-11T20:49:22.227Z,101738.19
2023-05-11T20:51:54.117Z,101740.69
2023-05-11T20:54:22.453Z,101745.88
2023-05-11T20:56:49.573Z,101744.06
2023-05-11T21:01:45.635Z,101741.31
2023-05-11T21:04:12.006Z,101739.53
2023-05-11T21:06:39.626Z,101734.31
2023-05-11T21:09:06.427Z,101743.00
2023-05-11T21:11:32.798Z,101743.94
2023-05-11T21:13:59.245Z,101742.16
2023-05-11T21:16:25.655Z,101743.22
2023-05-11T21:18:53.459Z,101737.34
2023-05-11T21:21:19.972Z,101740.06
2023-05-11T21:23:46.393Z,101747.91
2023-05-11T21:26:12.794Z,101744.31
2023-05-11T21:28:40.565Z,101743.41
2023-05-11T21:31:07.197Z,101746.00
2023-05-11T21:33:33.612Z,101750.28
2023-05-11T21:36:00.039Z,101750.22
2023-05-11T21:38:26.455Z,101743.41
2023-05-11T21:40:54.644Z,101746.09
2023-05-11T21:43:21.162Z,101747.69
2023-05-11T21:45:49.631Z,101747.78
2023-05-11T21:48:16.508Z,101753.22
2023-05-11T21:50:44.150Z,101752.53
2023-05-11T21:53:10.967Z,101753.59
2023-05-11T21:55:37.529Z,101756.25
2023-05-11T21:58:03.955Z,101757.94
2023-05-11T22:00:32.627Z,101749.25
2023-05-11T22:02:59.118Z,101754.44
2023-05-11T22:05:26.486Z,101758.09
2023-05-11T22:07:57.805Z,101758.09
2023-05-11T22:10:29.770Z,101759.94
2023-05-11T22:12:56.187Z,101758.09
2023-05-11T22:15:22.709Z,101758.25
2023-05-11T22:17:49.646Z,101760.00
2023-05-11T22:20:17.109Z,101760.00
2023-05-11T22:22:43.662Z,101763.38
2023-05-11T22:25:10.428Z,101756.59
2023-05-11T22:27:36.845Z,101755.00
2023-05-11T22:30:03.743Z,101756.69
2023-05-11T22:32:31.518Z,101753.38
2023-05-11T22:34:59.981Z,101758.53
2023-05-11T22:37:26.928Z,101755.97
2023-05-11T22:39:54.126Z,101755.97
2023-05-11T22:42:21.731Z,101756.97
2023-05-11T22:44:48.440Z,101749.97
2023-05-11T22:47:14.824Z,101750.03
2023-05-11T22:49:41.265Z,101747.63
2023-05-11T22:52:07.988Z,101747.59
2023-05-11T22:54:35.893Z,101755.47
2023-05-11T22:57:03.456Z,101755.69
2023-05-11T22:59:34.172Z,101753.03
2023-05-11T23:02:03.228Z,101748.63
2023-05-11T23:04:31.191Z,101754.84
2023-05-11T23:06:58.706Z,101754.91
2023-05-11T23:09:25.389Z,101756.03
2023-05-11T23:11:51.892Z,101749.50
2023-05-11T23:14:18.377Z,101753.06
2023-05-11T23:16:44.811Z,101754.88
2023-05-11T23:19:11.609Z,101754.94
2023-05-11T23:21:38.003Z,101754.38
2023-05-11T23:24:04.848Z,101751.13
2023-05-11T23:26:31.223Z,101753.94
2023-05-11T23:28:57.667Z,101757.88
2023-05-11T23:31:24.126Z,101757.19
2023-05-11T23:33:50.513Z,101757.28
2023-05-11T23:36:17.133Z,101748.69
2023-05-11T23:38:43.551Z,101753.94
2023-05-11T23:41:09.974Z,101748.94
2023-05-11T23:43:37.230Z,101749.97
2023-05-11T23:46:03.723Z,101746.59
2023-05-11T23:48:30.263Z,101750.03
2023-05-11T23:50:56.875Z,101753.63
2023-05-11T23:53:23.399Z,101746.00
2023-05-11T23:55:49.867Z,101747.81
2023-05-11T23:58:16.395Z,101748.88
